Time;durP1;ratioP1;P1;durP2;ratioP2;P2;SDS_P1;SDS_P2;PMS_P1;PMS_P2;Temp;Humidity;BMP_temperature;BMP_pressure;BME280_temperature;BME280_humidity;BME280_pressure;Samples;Min_cycle;Max_cycle;Signal;HPM_P1;HPM_P2
2023/08/04 00:00:47;;;;;;;19.05;4.03;;;;;;;-144.73;100.00;54621.16;4993018;28;20077;-74
2023/08/04 00:03:14;;;;;;;18.38;4.32;;;;;;;-144.73;100.00;54637.59;4976403;28;20066;-75
2023/08/04 00:05:39;;;;;;;28.40;4.15;;;;;;;-144.73;100.00;54625.28;4981777;28;20275;-74
2023/08/04 00:08:04;;;;;;;16.10;4.03;;;;;;;-144.73;100.00;54625.28;4983069;28;20020;-75
2023/08/04 00:10:29;;;;;;;13.82;4.18;;;;;;;-144.73;100.00;54645.78;4976314;28;20032;-74
2023/08/04 00:12:55;;;;;;;19.73;4.72;;;;;;;-144.73;100.00;54633.47;4969217;28;20036;-75
2023/08/04 00:15:20;;;;;;;15.50;5.13;;;;;;;-144.73;100.00;54641.69;5033465;28;20024;-74
2023/08/04 00:17:45;;;;;;;18.45;4.15;;;;;;;-144.73;100.00;54617.06;4969083;28;20035;-76
2023/08/04 00:20:11;;;;;;;18.73;3.92;;;;;;;-144.73;100.00;54592.44;4987277;28;20520;-74
2023/08/04 00:22:37;;;;;;;20.30;3.88;;;;;;;-144.73;100.00;54625.28;4992728;28;20036;-74
2023/08/04 00:25:04;;;;;;;16.27;3.70;;;;;;;-144.73;100.00;54631.44;5034662;28;20024;-75
2023/08/04 00:27:29;;;;;;;14.70;4.35;;;;;;;-144.73;100.00;54649.91;4998153;28;20051;-75
2023/08/04 00:29:54;;;;;;;17.98;4.00;;;;;;;-144.73;100.00;54682.75;5048174;28;20088;-75
2023/08/04 00:32:21;;;;;;;11.68;3.38;;;;;;;-144.73;100.00;54631.44;4952626;28;20039;-74
2023/08/04 00:34:47;;;;;;;15.30;3.65;;;;;;;-144.73;100.00;54645.78;4987831;28;20025;-74
2023/08/04 00:37:12;;;;;;;22.58;4.07;;;;;;;-144.73;100.00;54608.84;4998781;28;20050;-75
2023/08/04 00:39:37;;;;;;;21.38;4.13;;;;;;;-144.73;100.00;54600.63;5000996;28;20028;-75
2023/08/04 00:42:03;;;;;;;18.83;4.82;;;;;;;-144.73;100.00;54625.28;4974893;28;20080;-74
2023/08/04 00:44:28;;;;;;;22.02;4.38;;;;;;;-144.73;100.00;54637.59;4975448;28;20043;-75
2023/08/04 00:46:56;;;;;;;16.48;3.88;;;;;;;-144.73;100.00;54645.78;4949334;28;20043;-76
2023/08/04 00:49:21;;;;;;;16.13;4.60;;;;;;;-144.73;100.00;54670.44;5012970;28;20029;-75
2023/08/04 00:51:47;;;;;;;18.20;4.43;;;;;;;-144.73;100.00;54645.78;5033483;28;20406;-75
2023/08/04 00:54:13;;;;;;;19.15;3.92;;;;;;;-144.73;100.00;54645.78;4985720;28;20059;-75
2023/08/04 00:56:38;;;;;;;21.90;3.97;;;;;;;-144.73;100.00;54654.00;4986465;28;20454;-75
2023/08/04 00:59:04;;;;;;;14.98;3.53;;;;;;;-144.73;100.00;54633.47;4954790;28;20174;-75
2023/08/04 01:01:30;;;;;;;13.07;4.60;;;;;;;-144.73;100.00;54594.47;4954961;28;20030;-75
2023/08/04 01:03:56;;;;;;;19.23;4.68;;;;;;;-144.73;100.00;54596.53;4954711;28;20096;-75
2023/08/04 01:06:42;;;;;;;18.58;4.60;;;;;;;-144.73;100.00;54635.53;4969398;28;20025;-75
2023/08/04 01:09:30;;;;;;;17.25;3.40;;;;;;;-144.73;100.00;54639.63;5048904;28;20037;-75
2023/08/04 01:12:13;;;;;;;17.65;4.00;;;;;;;-144.73;100.00;54645.78;4974634;28;20069;-75
2023/08/04 01:14:41;;;;;;;18.77;4.20;;;;;;;-144.73;100.00;54621.16;4985158;28;20546;-75
2023/08/04 01:17:26;;;;;;;24.52;4.60;;;;;;;-144.73;100.00;54617.06;4957999;28;20066;-75
2023/08/04 01:19:52;;;;;;;22.95;3.90;;;;;;;-144.73;100.00;54625.28;4976785;28;20023;-75
2023/08/04 01:22:17;;;;;;;17.88;4.18;;;;;;;-144.73;100.00;54662.22;4953499;28;20047;-75
2023/08/04 01:24:43;;;;;;;26.10;4.38;;;;;;;-144.73;100.00;54592.44;4946220;28;20085;-75
2023/08/04 01:27:12;;;;;;;17.25;4.75;;;;;;;-144.73;100.00;54588.31;4952592;28;20113;-75
2023/08/04 01:29:43;;;;;;;15.55;4.18;;;;;;;-144.73;100.00;54641.69;4964058;28;20013;-75
2023/08/04 01:32:09;;;;;;;13.55;4.15;;;;;;;-144.73;100.00;54608.84;4938486;28;20476;-74
2023/08/04 01:34:34;;;;;;;18.05;5.15;;;;;;;-144.73;100.00;54608.84;5001644;28;20027;-75
2023/08/04 01:37:00;;;;;;;15.57;4.53;;;;;;;-144.73;100.00;54612.97;4971149;28;20042;-75
2023/08/04 01:39:25;;;;;;;23.17;4.57;;;;;;;-144.73;100.00;54641.69;4952180;28;20087;-74
2023/08/04 01:41:51;;;;;;;14.13;4.45;;;;;;;-144.73;100.00;54633.47;4976427;28;20122;-74
2023/08/04 01:44:16;;;;;;;11.15;4.88;;;;;;;-144.73;100.00;54654.00;4960991;28;20070;-75
2023/08/04 01:46:42;;;;;;;21.40;4.05;;;;;;;-144.73;100.00;54629.38;5032373;28;20064;-76
2023/08/04 01:49:07;;;;;;;11.10;4.07;;;;;;;-144.73;100.00;54682.75;4983938;28;20062;-74
2023/08/04 01:51:32;;;;;;;25.25;5.00;;;;;;;-144.73;100.00;54629.38;4933217;28;20116;-74
2023/08/04 01:53:58;;;;;;;19.88;5.20;;;;;;;-144.73;100.00;54629.38;4960846;28;20049;-73
2023/08/04 01:56:23;;;;;;;22.88;4.57;;;;;;;-144.73;100.00;54629.38;5010528;28;20060;-74
2023/08/04 01:58:48;;;;;;;26.25;4.90;;;;;;;-144.73;100.00;54649.91;4968851;28;20035;-75
2023/08/04 02:01:13;;;;;;;21.73;5.13;;;;;;;-144.73;100.00;54662.22;4968269;28;20035;-75
2023/08/04 02:03:39;;;;;;;16.80;4.18;;;;;;;-144.73;100.00;54600.63;4933988;28;20019;-74
2023/08/04 02:06:04;;;;;;;16.17;4.03;;;;;;;-144.73;100.00;54688.91;4932953;28;20027;-74
2023/08/04 02:08:29;;;;;;;15.77;5.22;;;;;;;-144.73;100.00;54670.44;4968805;28;20102;-74
2023/08/04 02:10:55;;;;;;;15.77;4.85;;;;;;;-144.73;100.00;54639.63;4990627;28;20039;-74
2023/08/04 02:13:20;;;;;;;24.13;4.60;;;;;;;-144.73;100.00;54670.44;4974652;28;20065;-74
2023/08/04 02:15:46;;;;;;;20.38;4.43;;;;;;;-144.73;100.00;54641.69;4972875;28;20024;-74
2023/08/04 02:18:11;;;;;;;18.90;4.13;;;;;;;-144.73;100.00;54608.84;4990745;28;20030;-74
2023/08/04 02:20:36;;;;;;;22.67;4.65;;;;;;;-144.73;100.00;54639.63;4952341;28;20073;-75
2023/08/04 02:23:02;;;;;;;14.25;4.07;;;;;;;-144.73;100.00;54645.78;5034171;28;20033;-74
2023/08/04 02:25:28;;;;;;;14.60;4.93;;;;;;;-144.73;100.00;54670.44;5000465;28;20393;-75
2023/08/04 02:27:53;;;;;;;20.63;5.03;;;;;;;-144.73;100.00;54639.63;5030135;28;20035;-74
2023/08/04 02:30:18;;;;;;;19.33;5.32;;;;;;;-144.73;100.00;54600.63;4982406;28;20365;-74
2023/08/04 02:32:43;;;;;;;15.23;5.28;;;;;;;-144.73;100.00;54637.59;5008462;28;20029;-74
2023/08/04 02:35:09;;;;;;;17.75;5.32;;;;;;;-144.73;100.00;54703.28;5022891;28;20459;-74
2023/08/04 02:37:34;;;;;;;22.50;4.95;;;;;;;-144.73;100.00;54645.78;4963531;28;20039;-69
2023/08/04 02:39:59;;;;;;;32.00;6.20;;;;;;;-144.73;100.00;54649.91;4959394;28;20031;-69
2023/08/04 02:42:25;;;;;;;20.20;5.88;;;;;;;-144.73;100.00;54656.06;4972970;28;20058;-69
2023/08/04 02:44:54;;;;;;;26.33;6.45;;;;;;;-144.73;100.00;54670.44;5017248;28;20114;-69
2023/08/04 02:47:20;;;;;;;22.30;6.68;;;;;;;-144.73;100.00;54649.91;4981720;28;20037;-70
2023/08/04 02:49:45;;;;;;;23.55;6.00;;;;;;;-144.73;100.00;54633.47;5033525;28;20029;-70
2023/08/04 02:52:14;;;;;;;28.80;6.60;;;;;;;-144.73;100.00;54645.78;5066325;28;20033;-70
2023/08/04 02:54:40;;;;;;;26.15;6.05;;;;;;;-144.73;100.00;54654.00;5033600;28;20051;-70
2023/08/04 02:57:06;;;;;;;23.92;7.13;;;;;;;-144.73;100.00;54641.69;5051042;28;20033;-69
2023/08/04 02:59:31;;;;;;;24.10;8.93;;;;;;;-144.73;100.00;54612.97;5033515;28;20128;-70
2023/08/04 03:01:56;;;;;;;21.10;7.32;;;;;;;-144.73;100.00;54621.16;5032810;28;20055;-71
2023/08/04 03:04:22;;;;;;;19.40;7.35;;;;;;;-144.73;100.00;54637.59;5033190;28;20079;-71
2023/08/04 03:06:47;;;;;;;30.38;8.10;;;;;;;-144.73;100.00;54662.22;5066415;28;20519;-71
2023/08/04 03:09:12;;;;;;;26.58;7.88;;;;;;;-144.73;100.00;54612.97;5033534;28;20124;-70
2023/08/04 03:11:38;;;;;;;27.88;8.25;;;;;;;-144.73;100.00;54637.59;5065382;28;20072;-70
2023/08/04 03:14:03;;;;;;;22.15;7.97;;;;;;;-144.73;100.00;54641.69;5051119;28;20033;-70
2023/08/04 03:16:29;;;;;;;36.25;8.70;;;;;;;-144.73;100.00;54645.78;5050014;28;20040;-71
2023/08/04 03:18:54;;;;;;;26.80;8.60;;;;;;;-144.73;100.00;54625.28;5066901;28;20025;-70
2023/08/04 03:21:20;;;;;;;32.53;9.07;;;;;;;-144.73;100.00;54617.06;5050354;28;20535;-70
2023/08/04 03:23:45;;;;;;;26.60;7.78;;;;;;;-144.73;100.00;54654.00;5051495;28;20033;-70
2023/08/04 03:26:10;;;;;;;29.90;7.65;;;;;;;-144.73;100.00;54617.06;5032251;28;20102;-71
2023/08/04 03:28:36;;;;;;;31.75;8.25;;;;;;;-144.73;100.00;54625.28;5033026;28;20028;-71
2023/08/04 03:31:01;;;;;;;29.88;7.57;;;;;;;-144.73;100.00;54660.16;5065830;28;20058;-70
2023/08/04 03:33:27;;;;;;;28.60;8.25;;;;;;;-144.73;100.00;54651.97;5033498;28;20032;-70
2023/08/04 03:35:52;;;;;;;29.15;8.68;;;;;;;-144.73;100.00;54631.44;5049896;28;20049;-69
2023/08/04 03:38:18;;;;;;;25.33;7.68;;;;;;;-144.73;100.00;54625.28;5051194;28;20025;-69
2023/08/04 03:40:43;;;;;;;35.55;9.27;;;;;;;-144.73;100.00;54654.00;5065498;28;20559;-69
2023/08/04 03:43:08;;;;;;;27.80;7.28;;;;;;;-144.73;100.00;54641.69;5032811;28;20025;-69
2023/08/04 03:45:34;;;;;;;30.10;7.97;;;;;;;-144.73;100.00;54637.59;5032147;28;20019;-69
2023/08/04 03:47:59;;;;;;;21.02;7.10;;;;;;;-144.73;100.00;54617.06;5051138;28;20538;-70
2023/08/04 03:50:25;;;;;;;26.45;7.28;;;;;;;-144.73;100.00;54629.38;5050575;28;20468;-69
2023/08/04 03:52:51;;;;;;;34.38;7.50;;;;;;;-144.73;100.00;54658.13;5032431;28;20075;-69
2023/08/04 03:55:17;;;;;;;22.52;7.13;;;;;;;-144.73;100.00;54649.91;5032993;28;20075;-70
2023/08/04 03:57:42;;;;;;;22.45;5.93;;;;;;;-144.73;100.00;54594.47;5032733;28;20112;-70
2023/08/04 04:00:08;;;;;;;27.90;7.15;;;;;;;-144.73;100.00;54641.69;5050793;28;20104;-70
2023/08/04 04:02:34;;;;;;;25.15;7.25;;;;;;;-144.73;100.00;54633.47;5032382;28;20116;-72
2023/08/04 04:04:59;;;;;;;24.40;6.45;;;;;;;-144.73;100.00;54631.44;5032642;28;20055;-71
2023/08/04 04:07:24;;;;;;;19.38;6.03;;;;;;;-144.73;100.00;54641.69;5032606;28;20025;-71
2023/08/04 04:09:50;;;;;;;25.08;6.25;;;;;;;-144.73;100.00;54645.78;5032782;28;20081;-70
2023/08/04 04:12:15;;;;;;;18.55;5.80;;;;;;;-144.73;100.00;54658.13;5032441;28;20037;-71
2023/08/04 04:14:40;;;;;;;24.58;6.45;;;;;;;-144.73;100.00;54674.53;5033013;28;20029;-71
2023/08/04 04:17:06;;;;;;;18.02;5.97;;;;;;;-144.73;100.00;54612.97;5032349;28;20104;-70
2023/08/04 04:19:31;;;;;;;28.23;6.65;;;;;;;-144.73;100.00;54637.59;5032434;28;20068;-70
2023/08/04 04:21:57;;;;;;;15.98;5.80;;;;;;;-144.73;100.00;54637.59;5032300;28;20057;-70
2023/08/04 04:24:22;;;;;;;14.77;6.00;;;;;;;-144.73;100.00;54600.63;5035277;28;20021;-70
2023/08/04 04:26:48;;;;;;;18.75;5.65;;;;;;;-144.73;100.00;54608.84;5035968;28;20033;-69
2023/08/04 04:29:13;;;;;;;27.45;7.10;;;;;;;-144.73;100.00;54633.47;5036173;28;20025;-69
2023/08/04 04:31:38;;;;;;;26.42;7.30;;;;;;;-144.73;100.00;54604.75;5068354;28;20035;-70
2023/08/04 04:34:04;;;;;;;17.42;7.03;;;;;;;-144.73;100.00;54625.28;5036155;28;20021;-69
2023/08/04 04:36:29;;;;;;;28.92;7.70;;;;;;;-144.73;100.00;54641.69;5068450;28;20434;-70
2023/08/04 04:38:55;;;;;;;27.30;8.00;;;;;;;-144.73;100.00;54633.47;5036753;28;20021;-76
2023/08/04 04:41:20;;;;;;;20.42;7.70;;;;;;;-144.73;100.00;54615.00;4957397;28;20035;-76
2023/08/04 04:43:46;;;;;;;23.52;7.20;;;;;;;-144.73;100.00;54649.91;4941331;28;20078;-76
2023/08/04 04:46:11;;;;;;;26.50;7.00;;;;;;;-144.73;100.00;54621.16;5002865;28;20029;-75
2023/08/04 04:48:36;;;;;;;31.30;8.52;;;;;;;-144.73;100.00;54641.69;5022406;28;20021;-75
2023/08/04 04:51:02;;;;;;;31.90;6.97;;;;;;;-144.73;100.00;54670.44;4974844;28;20097;-75
2023/08/04 04:53:27;;;;;;;27.10;7.15;;;;;;;-144.73;100.00;54637.59;4976062;28;20028;-75
2023/08/04 04:55:55;;;;;;;30.85;6.82;;;;;;;-144.73;100.00;54612.97;5009011;28;20043;-75
2023/08/04 04:58:21;;;;;;;39.38;6.63;;;;;;;-144.73;100.00;54670.44;4969369;28;20024;-75
2023/08/04 05:00:46;;;;;;;19.92;6.85;;;;;;;-144.73;100.00;54649.91;5015597;28;20070;-75
2023/08/04 05:03:11;;;;;;;25.08;6.22;;;;;;;-144.73;100.00;54662.22;4969124;28;20521;-75
2023/08/04 05:05:38;;;;;;;22.65;7.55;;;;;;;-144.73;100.00;54656.06;4982971;28;20049;-74
2023/08/04 05:08:03;;;;;;;26.05;6.95;;;;;;;-144.73;100.00;54649.91;5007081;28;20021;-73
2023/08/04 05:10:29;;;;;;;24.55;6.65;;;;;;;-144.73;100.00;54608.84;4982176;28;20025;-74
2023/08/04 05:12:54;;;;;;;19.13;6.30;;;;;;;-144.73;100.00;54617.06;4969679;28;20050;-74
2023/08/04 05:15:20;;;;;;;20.25;5.78;;;;;;;-144.73;100.00;54695.06;4938068;28;20577;-74
2023/08/04 05:17:45;;;;;;;16.67;6.28;;;;;;;-144.73;100.00;54670.44;4979043;28;20058;-74
2023/08/04 05:20:12;;;;;;;23.80;5.43;;;;;;;-144.73;100.00;54625.28;4992278;28;20113;-75
2023/08/04 05:22:37;;;;;;;26.88;6.50;;;;;;;-144.73;100.00;54637.59;4936574;28;20101;-74
2023/08/04 05:25:07;;;;;;;23.60;6.20;;;;;;;-144.73;100.00;54678.63;4974581;28;20066;-75
2023/08/04 05:27:33;;;;;;;16.73;5.00;;;;;;;-144.73;100.00;54633.47;4933998;28;20352;-73
2023/08/04 05:29:58;;;;;;;16.38;5.18;;;;;;;-144.73;100.00;54658.13;4972599;28;20030;-73
2023/08/04 05:32:23;;;;;;;16.60;5.40;;;;;;;-144.73;100.00;54654.00;4933349;28;20035;-74
2023/08/04 05:34:49;;;;;;;17.77;5.45;;;;;;;-144.73;100.00;54670.44;5011378;28;20059;-74
2023/08/04 05:37:14;;;;;;;18.48;5.10;;;;;;;-144.73;100.00;54612.97;4932773;28;20063;-74
2023/08/04 05:39:39;;;;;;;19.83;5.45;;;;;;;-144.73;100.00;54645.78;4977421;28;20067;-74
2023/08/04 05:42:06;;;;;;;21.85;5.30;;;;;;;-144.73;100.00;54654.00;4936489;28;20063;-74
2023/08/04 05:44:31;;;;;;;18.00;5.63;;;;;;;-144.73;100.00;54617.06;4932993;28;20032;-74
2023/08/04 05:46:56;;;;;;;14.52;4.57;;;;;;;-144.73;100.00;54621.16;4932830;28;20081;-74
2023/08/04 05:49:22;;;;;;;21.90;5.57;;;;;;;-144.73;100.00;54637.59;4964107;28;20028;-74
2023/08/04 05:51:47;;;;;;;27.35;4.38;;;;;;;-144.73;100.00;54674.53;5023554;28;20082;-73
2023/08/04 05:54:12;;;;;;;16.40;5.25;;;;;;;-144.73;100.00;54612.97;5018533;28;20066;-75
2023/08/04 05:56:38;;;;;;;21.75;4.13;;;;;;;-144.73;100.00;54654.00;4938667;28;20044;-73
2023/08/04 05:59:03;;;;;;;16.70;5.07;;;;;;;-144.73;100.00;54617.06;4949993;28;20037;-75
2023/08/04 06:01:29;;;;;;;17.38;4.38;;;;;;;-144.73;100.00;54654.00;4931676;28;20027;-75
2023/08/04 06:03:54;;;;;;;22.60;4.43;;;;;;;-144.73;100.00;54629.38;4992166;28;20056;-76
2023/08/04 06:06:20;;;;;;;14.23;4.35;;;;;;;-144.73;100.00;54670.44;5010930;28;20049;-76
2023/08/04 06:08:46;;;;;;;17.92;4.50;;;;;;;-144.73;100.00;54598.59;4941734;28;20169;-75
2023/08/04 06:11:12;;;;;;;14.80;4.20;;;;;;;-144.73;100.00;54649.91;4932439;28;20114;-75
2023/08/04 06:13:37;;;;;;;23.88;4.07;;;;;;;-144.73;100.00;54629.38;4933046;28;20059;-75
2023/08/04 06:16:03;;;;;;;16.95;4.85;;;;;;;-144.73;100.00;54654.00;4966361;28;20043;-75
2023/08/04 06:18:28;;;;;;;12.48;3.88;;;;;;;-144.73;100.00;54649.91;4933203;28;20019;-76
2023/08/04 06:20:54;;;;;;;23.83;3.92;;;;;;;-144.73;100.00;54586.28;5029428;28;20058;-74
2023/08/04 06:23:19;;;;;;;27.25;4.15;;;;;;;-144.73;100.00;54625.28;4998222;28;20023;-74
2023/08/04 06:25:44;;;;;;;11.30;3.45;;;;;;;-144.73;100.00;54629.38;5012421;28;20048;-74
2023/08/04 06:28:10;;;;;;;17.75;4.28;;;;;;;-144.73;100.00;54600.63;4933299;28;20015;-74
2023/08/04 06:30:36;;;;;;;15.25;5.00;;;;;;;-144.73;100.00;54658.13;4932036;28;20505;-75
2023/08/04 06:33:02;;;;;;;16.98;3.90;;;;;;;-144.73;100.00;54600.63;4954298;28;20013;-75
2023/08/04 06:35:27;;;;;;;21.27;5.50;;;;;;;-144.73;100.00;54658.13;4969027;28;20072;-75
2023/08/04 06:37:52;;;;;;;22.95;4.32;;;;;;;-144.73;100.00;54639.63;4985334;28;20035;-75
2023/08/04 06:40:18;;;;;;;15.93;4.03;;;;;;;-144.73;100.00;54621.16;5017508;28;20023;-75
2023/08/04 06:42:43;;;;;;;14.63;3.10;;;;;;;-144.73;100.00;54660.16;5032288;28;20029;-69
2023/08/04 06:45:09;;;;;;;13.10;2.88;;;;;;;-144.73;100.00;54604.75;4974657;28;20013;-69
2023/08/04 06:47:34;;;;;;;13.43;3.97;;;;;;;-144.73;100.00;54637.59;4986533;28;20041;-70
2023/08/04 06:50:00;;;;;;;12.38;3.17;;;;;;;-144.73;100.00;54625.28;4932553;28;20030;-70
2023/08/04 06:52:25;;;;;;;18.42;4.55;;;;;;;-144.73;100.00;54633.47;4972917;28;20127;-70
2023/08/04 06:54:51;;;;;;;19.15;3.72;;;;;;;-144.73;100.00;54615.00;4933118;28;20039;-70
2023/08/04 06:57:16;;;;;;;16.40;3.78;;;;;;;-144.73;100.00;54612.97;4948722;28;20031;-70
2023/08/04 06:59:42;;;;;;;13.95;3.55;;;;;;;-144.73;100.00;54641.69;4933148;28;20034;-70
2023/08/04 07:02:07;;;;;;;15.10;4.03;;;;;;;-144.73;100.00;54596.53;4950873;28;20103;-70
2023/08/04 07:04:33;;;;;;;12.52;3.60;;;;;;;-144.73;100.00;54645.78;4972754;28;20081;-70
2023/08/04 07:06:58;;;;;;;8.85;2.95;;;;;;;-144.73;100.00;54629.38;4951872;28;20394;-71
2023/08/04 07:09:24;;;;;;;10.93;3.60;;;;;;;-144.73;100.00;54596.53;4949176;28;20030;-70
2023/08/04 07:11:49;;;;;;;15.05;3.72;;;;;;;-144.73;100.00;54662.22;4972008;28;20397;-70
2023/08/04 07:14:15;;;;;;;13.60;3.20;;;;;;;-144.73;100.00;54612.97;4939603;28;20040;-69
2023/08/04 07:16:40;;;;;;;21.08;4.30;;;;;;;-144.73;100.00;54625.28;4931332;29;20051;-70
2023/08/04 07:19:06;;;;;;;17.35;2.92;;;;;;;-144.73;100.00;54658.13;4932222;28;20020;-70
2023/08/04 07:21:31;;;;;;;9.68;2.90;;;;;;;-144.73;100.00;54612.97;4933914;28;20072;-70
2023/08/04 07:23:56;;;;;;;12.07;3.03;;;;;;;-144.73;100.00;54617.06;4973155;28;20492;-70
2023/08/04 07:26:22;;;;;;;18.23;3.30;;;;;;;-144.73;100.00;54617.06;4930734;28;20043;-70
2023/08/04 07:28:47;;;;;;;13.10;3.45;;;;;;;-144.73;100.00;54612.97;4948749;28;20038;-70
2023/08/04 07:31:13;;;;;;;12.45;3.30;;;;;;;-144.73;100.00;54629.38;4936896;28;20028;-71
2023/08/04 07:33:42;;;;;;;19.75;3.35;;;;;;;-144.73;100.00;54596.53;4939448;28;20045;-71
2023/08/04 07:36:08;;;;;;;11.75;3.53;;;;;;;-144.73;100.00;54645.78;4934220;28;20032;-71
2023/08/04 07:38:34;;;;;;;14.93;3.42;;;;;;;-144.73;100.00;54580.13;4957955;28;20023;-71
2023/08/04 07:40:59;;;;;;;15.20;3.22;;;;;;;-144.73;100.00;54600.63;4934300;28;20043;-70
2023/08/04 07:43:30;;;;;;;11.55;3.28;;;;;;;-144.73;100.00;54637.59;4944333;28;20031;-71
2023/08/04 07:45:56;;;;;;;16.75;3.85;;;;;;;-144.73;100.00;54649.91;5031529;28;20039;-71
2023/08/04 07:48:22;;;;;;;14.25;2.90;;;;;;;-144.73;100.00;54596.53;4983316;28;20032;-71
2023/08/04 07:50:49;;;;;;;18.77;3.42;;;;;;;-144.73;100.00;54629.38;4953569;28;20027;-71
2023/08/04 07:53:14;;;;;;;12.07;3.33;;;;;;;-144.73;100.00;54588.31;4931603;28;20019;-71
2023/08/04 07:55:40;;;;;;;8.90;3.00;;;;;;;-144.73;100.00;54604.75;4935751;28;20020;-71
2023/08/04 07:58:06;;;;;;;8.90;3.53;;;;;;;-144.73;100.00;54625.28;4941414;28;20039;-71
2023/08/04 08:00:32;;;;;;;15.02;3.50;;;;;;;-144.73;100.00;54621.16;4976142;28;20021;-72
2023/08/04 08:02:57;;;;;;;10.70;2.90;;;;;;;-144.73;100.00;54588.31;4993581;28;20099;-72
2023/08/04 08:05:23;;;;;;;17.30;2.63;;;;;;;-144.73;100.00;54633.47;5010898;28;20011;-71
2023/08/04 08:07:48;;;;;;;8.05;2.42;;;;;;;-144.73;100.00;54608.84;4999535;28;20063;-71
2023/08/04 08:10:14;;;;;;;10.48;2.95;;;;;;;-144.73;100.00;54567.81;4963619;28;20110;-71
2023/08/04 08:12:40;;;;;;;7.45;2.28;;;;;;;-144.73;100.00;54617.06;4975462;28;20025;-72
2023/08/04 08:15:06;;;;;;;13.65;3.38;;;;;;;-144.73;100.00;54596.53;5010903;28;20023;-71
2023/08/04 08:17:32;;;;;;;10.50;2.63;;;;;;;-144.73;100.00;54588.31;4949993;28;20039;-71
2023/08/04 08:19:57;;;;;;;9.35;2.30;;;;;;;-144.73;100.00;54608.84;4972240;28;20524;-71
2023/08/04 08:22:23;;;;;;;8.95;2.90;;;;;;;-144.73;100.00;54596.53;4983031;28;20152;-71
2023/08/04 08:24:56;;;;;;;14.32;3.58;;;;;;;-144.73;100.00;54588.31;4977517;28;20038;-71
2023/08/04 08:27:21;;;;;;;8.82;2.08;;;;;;;-144.73;100.00;54625.28;4971911;28;20080;-71
2023/08/04 08:29:52;;;;;;;8.05;2.08;;;;;;;-144.73;100.00;54604.75;4985807;28;20863;-70
2023/08/04 08:32:17;;;;;;;9.45;2.30;;;;;;;-144.73;100.00;54637.59;4993271;28;20038;-71
2023/08/04 08:34:43;;;;;;;14.25;2.40;;;;;;;-144.73;100.00;54594.47;4955267;28;20043;-70
2023/08/04 08:37:09;;;;;;;16.13;2.90;;;;;;;-144.73;100.00;54625.28;4998129;28;20542;-71
2023/08/04 08:39:34;;;;;;;12.82;2.63;;;;;;;-144.73;100.00;54600.63;4949377;28;20066;-71
2023/08/04 08:42:00;;;;;;;9.82;2.65;;;;;;;-144.73;100.00;54629.38;4946456;28;20077;-72
2023/08/04 08:44:26;;;;;;;10.10;3.08;;;;;;;-144.73;100.00;54612.97;4948136;28;20031;-73
2023/08/04 08:46:52;;;;;;;9.95;2.67;;;;;;;-144.73;100.00;54641.69;4965868;28;20043;-72
2023/08/04 08:49:23;;;;;;;9.50;2.90;;;;;;;-144.73;100.00;54619.13;4997596;28;20025;-72
2023/08/04 08:51:51;;;;;;;14.40;2.40;;;;;;;-144.73;100.00;54608.84;4998797;28;20388;-72
2023/08/04 08:54:18;;;;;;;9.30;2.72;;;;;;;-144.73;100.00;54625.28;4951815;28;20027;-72
2023/08/04 08:56:44;;;;;;;8.75;2.92;;;;;;;-144.73;100.00;54617.06;4996873;28;20037;-71
2023/08/04 08:59:09;;;;;;;13.07;3.63;;;;;;;-144.73;100.00;54604.75;4967043;28;20491;-73
2023/08/04 09:01:35;;;;;;;8.73;3.17;;;;;;;-144.73;100.00;54600.63;4956540;28;20031;-72
2023/08/04 09:04:00;;;;;;;9.90;3.28;;;;;;;-144.73;100.00;54617.06;4929903;28;20023;-72
2023/08/04 09:06:26;;;;;;;7.15;2.08;;;;;;;-144.73;100.00;54637.59;4944781;28;20049;-71
2023/08/04 09:08:53;;;;;;;7.03;2.28;;;;;;;-144.73;100.00;54621.16;4931945;28;20031;-72
2023/08/04 09:11:19;;;;;;;9.63;2.88;;;;;;;-144.73;100.00;54594.47;4930166;28;20093;-71
2023/08/04 09:13:45;;;;;;;7.90;2.58;;;;;;;-144.73;100.00;54617.06;4947099;28;20019;-70
2023/08/04 09:16:12;;;;;;;5.85;2.00;;;;;;;-144.73;100.00;54645.78;4945411;28;20054;-71
2023/08/04 09:18:39;;;;;;;4.68;2.58;;;;;;;-144.73;100.00;54621.16;4966478;28;20108;-71
2023/08/04 09:21:07;;;;;;;4.97;2.30;;;;;;;-144.73;100.00;54584.22;4971252;28;20031;-70
2023/08/04 09:23:54;;;;;;;5.88;2.25;;;;;;;-144.73;100.00;54588.31;5028912;28;20030;-70
2023/08/04 09:26:19;;;;;;;5.63;1.88;;;;;;;-144.73;100.00;54596.53;4969334;28;20061;-69
2023/08/04 09:28:46;;;;;;;7.57;2.20;;;;;;;-144.73;100.00;54625.28;4975045;28;20027;-71
2023/08/04 09:31:13;;;;;;;4.15;1.70;;;;;;;-144.73;100.00;54600.63;4962755;28;20043;-69
2023/08/04 09:33:43;;;;;;;7.00;1.73;;;;;;;-144.73;100.00;54604.75;4989601;28;20077;-69
2023/08/04 09:36:12;;;;;;;4.97;1.63;;;;;;;-144.73;100.00;54584.22;5000777;28;20040;-69
2023/08/04 09:38:39;;;;;;;7.85;1.40;;;;;;;-144.73;100.00;54580.13;4982099;28;20664;-69
2023/08/04 09:41:08;;;;;;;3.30;1.40;;;;;;;-144.73;100.00;54590.38;4989628;28;20046;-69
2023/08/04 09:43:35;;;;;;;3.80;1.77;;;;;;;-144.73;100.00;54580.13;4973756;28;20097;-69
2023/08/04 09:46:06;;;;;;;3.50;1.52;;;;;;;-144.73;100.00;54621.16;4989039;28;20531;-69
2023/08/04 09:48:32;;;;;;;;;;;;;;;-144.73;100.00;54584.22;5028929;28;20023;-69
2023/08/04 09:51:11;;;;;;;3.97;1.67;;;;;;;-144.73;100.00;54608.84;5024756;28;19994;-70
2023/08/04 09:53:44;;;;;;;6.97;1.63;;;;;;;-144.73;100.00;54547.28;4982839;28;20081;-70
2023/08/04 09:56:10;;;;;;;6.63;1.65;;;;;;;-144.73;100.00;54539.06;4997352;28;20148;-70
2023/08/04 09:58:37;;;;;;;6.55;1.50;;;;;;;-144.73;100.00;54543.16;4985025;28;20035;-70
2023/08/04 10:01:02;;;;;;;5.00;1.90;;;;;;;-144.73;100.00;54551.38;4971742;28;20120;-70
2023/08/04 10:03:28;;;;;;;5.68;1.80;;;;;;;-144.73;100.00;54580.13;4998513;28;20024;-70
2023/08/04 10:05:59;;;;;;;4.65;1.77;;;;;;;-144.73;100.00;54571.91;4970868;28;20043;-71
2023/08/04 10:08:28;;;;;;;6.90;1.75;;;;;;;-144.73;100.00;54576.00;4992081;28;20028;-71
2023/08/04 10:10:55;;;;;;;6.55;1.98;;;;;;;-144.73;100.00;54621.16;4967948;28;20124;-71
2023/08/04 10:13:20;;;;;;;5.55;1.90;;;;;;;-144.73;100.00;54588.31;4987005;28;20023;-71
2023/08/04 10:15:47;;;;;;;7.07;2.67;;;;;;;-144.73;100.00;54598.59;4976206;28;20362;-71
2023/08/04 10:18:12;;;;;;;7.82;1.70;;;;;;;-144.73;100.00;54592.44;4956473;28;20027;-71
2023/08/04 10:20:38;;;;;;;6.13;1.90;;;;;;;-144.73;100.00;54608.84;4955123;28;20085;-72
2023/08/04 10:23:03;;;;;;;12.40;2.60;;;;;;;-144.73;100.00;54608.84;4965948;28;20019;-71
2023/08/04 10:25:29;;;;;;;6.22;1.98;;;;;;;-144.73;100.00;54604.75;4966784;28;20371;-71
2023/08/04 10:27:54;;;;;;;5.22;1.70;;;;;;;-144.73;100.00;54623.22;4953787;28;20106;-71
2023/08/04 10:30:19;;;;;;;2.38;1.33;;;;;;;-144.73;100.00;54621.16;4968551;28;20024;-71
2023/08/04 10:32:45;;;;;;;3.03;1.25;;;;;;;-144.73;100.00;54600.63;4939504;28;20078;-71
2023/08/04 10:35:21;;;;;;;1.90;1.13;;;;;;;-144.73;100.00;54617.06;4954924;28;20023;-71
2023/08/04 10:37:48;;;;;;;5.25;1.65;;;;;;;-144.73;100.00;54604.75;5011933;28;20017;-71
2023/08/04 10:40:28;;;;;;;2.88;1.50;;;;;;;-144.73;100.00;54588.31;5020386;28;20031;-71
2023/08/04 10:43:04;;;;;;;6.25;1.90;;;;;;;-144.73;100.00;54590.38;4999836;28;20032;-71
2023/08/04 10:45:52;;;;;;;2.97;1.50;;;;;;;-144.73;100.00;54584.22;4941220;28;20043;-71
2023/08/04 10:48:20;;;;;;;4.95;1.50;;;;;;;-144.73;100.00;54617.06;4940005;28;20081;-71
2023/08/04 10:50:46;;;;;;;3.25;1.83;;;;;;;-144.73;100.00;54578.06;4927752;28;20031;-71
2023/08/04 10:53:12;;;;;;;3.22;1.40;;;;;;;-144.73;100.00;54588.31;4952654;28;20031;-71
2023/08/04 10:55:50;;;;;;;4.38;1.55;;;;;;;-144.73;100.00;54545.22;4927347;28;20038;-71
2023/08/04 10:58:15;;;;;;;4.13;1.40;;;;;;;-144.73;100.00;54539.06;4950974;28;20548;-72
2023/08/04 11:00:44;;;;;;;3.25;1.48;;;;;;;-144.73;100.00;54569.84;4973936;28;20039;-72